sensor_id;sensor_type;location;lat;lon;timestamp;temperature;humidity
66119;DHT22;52912;48.564;9.302;2022-08-11T00:00:33;19.89;51.30
66119;DHT22;52912;48.564;9.302;2022-08-11T00:03:03;19.98;51.46
66119;DHT22;52912;48.564;9.302;2022-08-11T00:05:29;19.93;51.51
66119;DHT22;52912;48.564;9.302;2022-08-11T00:07:56;19.58;52.52
66119;DHT22;52912;48.564;9.302;2022-08-11T00:10:26;19.57;52.57
66119;DHT22;52912;48.564;9.302;2022-08-11T00:12:55;19.43;53.34
66119;DHT22;52912;48.564;9.302;2022-08-11T00:15:21;19.54;53.01
66119;DHT22;52912;48.564;9.302;2022-08-11T00:17:47;19.40;52.19
66119;DHT22;52912;48.564;9.302;2022-08-11T00:20:15;19.55;53.37
66119;DHT22;52912;48.564;9.302;2022-08-11T00:22:43;19.22;54.54
66119;DHT22;52912;48.564;9.302;2022-08-11T00:25:10;19.19;54.91
66119;DHT22;52912;48.564;9.302;2022-08-11T00:27:38;19.23;54.47
66119;DHT22;52912;48.564;9.302;2022-08-11T00:30:07;19.19;54.75
66119;DHT22;52912;48.564;9.302;2022-08-11T00:32:33;19.08;54.98
66119;DHT22;52912;48.564;9.302;2022-08-11T00:35:00;18.98;55.45
66119;DHT22;52912;48.564;9.302;2022-08-11T00:37:26;18.96;54.58
66119;DHT22;52912;48.564;9.302;2022-08-11T00:39:53;18.94;54.97
66119;DHT22;52912;48.564;9.302;2022-08-11T00:42:26;19.05;54.39
66119;DHT22;52912;48.564;9.302;2022-08-11T00:45:03;18.98;54.49
66119;DHT22;52912;48.564;9.302;2022-08-11T00:47:47;18.76;55.14
66119;DHT22;52912;48.564;9.302;2022-08-11T00:50:21;18.72;55.30
66119;DHT22;52912;48.564;9.302;2022-08-11T00:53:13;18.78;54.98
66119;DHT22;52912;48.564;9.302;2022-08-11T00:56:09;18.69;55.83
66119;DHT22;52912;48.564;9.302;2022-08-11T01:01:56;18.75;55.77
66119;DHT22;52912;48.564;9.302;2022-08-11T01:13:42;18.57;56.32
66119;DHT22;52912;48.564;9.302;2022-08-11T01:16:11;18.50;56.28
66119;DHT22;52912;48.564;9.302;2022-08-11T01:18:58;18.39;56.95
66119;DHT22;52912;48.564;9.302;2022-08-11T01:24:55;17.89;57.88
66119;DHT22;52912;48.564;9.302;2022-08-11T01:28:12;18.01;57.86
66119;DHT22;52912;48.564;9.302;2022-08-11T01:31:06;17.94;57.91
66119;DHT22;52912;48.564;9.302;2022-08-11T01:36:58;18.03;57.64
66119;DHT22;52912;48.564;9.302;2022-08-11T01:43:09;18.09;57.60
66119;DHT22;52912;48.564;9.302;2022-08-11T01:45:41;17.77;59.58
66119;DHT22;52912;48.564;9.302;2022-08-11T01:48:15;17.86;58.57
66119;DHT22;52912;48.564;9.302;2022-08-11T01:51:02;17.89;58.32
66119;DHT22;52912;48.564;9.302;2022-08-11T01:53:42;17.89;57.97
66119;DHT22;52912;48.564;9.302;2022-08-11T01:56:20;17.77;58.53
66119;DHT22;52912;48.564;9.302;2022-08-11T01:58:58;17.79;58.33
66119;DHT22;52912;48.564;9.302;2022-08-11T02:01:37;17.73;58.89
66119;DHT22;52912;48.564;9.302;2022-08-11T02:04:17;17.81;58.59
66119;DHT22;52912;48.564;9.302;2022-08-11T02:06:49;17.78;58.60
66119;DHT22;52912;48.564;9.302;2022-08-11T02:09:25;17.95;58.07
66119;DHT22;52912;48.564;9.302;2022-08-11T02:11:57;17.66;58.76
66119;DHT22;52912;48.564;9.302;2022-08-11T02:14:29;17.75;58.32
66119;DHT22;52912;48.564;9.302;2022-08-11T02:17:09;17.89;58.34
66119;DHT22;52912;48.564;9.302;2022-08-11T02:19:44;17.82;58.59
66119;DHT22;52912;48.564;9.302;2022-08-11T02:22:18;17.91;58.56
66119;DHT22;52912;48.564;9.302;2022-08-11T02:24:50;17.89;58.82
66119;DHT22;52912;48.564;9.302;2022-08-11T02:27:21;17.78;58.92
66119;DHT22;52912;48.564;9.302;2022-08-11T02:29:53;17.67;59.42
66119;DHT22;52912;48.564;9.302;2022-08-11T02:32:23;17.71;59.25
66119;DHT22;52912;48.564;9.302;2022-08-11T02:34:55;17.63;59.57
66119;DHT22;52912;48.564;9.302;2022-08-11T02:37:31;17.34;59.79
66119;DHT22;52912;48.564;9.302;2022-08-11T02:40:14;17.33;59.76
66119;DHT22;52912;48.564;9.302;2022-08-11T02:42:49;17.29;60.82
66119;DHT22;52912;48.564;9.302;2022-08-11T02:45:41;17.36;60.61
66119;DHT22;52912;48.564;9.302;2022-08-11T02:48:20;17.16;61.44
66119;DHT22;52912;48.564;9.302;2022-08-11T02:50:55;17.23;60.89
66119;DHT22;52912;48.564;9.302;2022-08-11T02:53:29;17.15;60.87
66119;DHT22;52912;48.564;9.302;2022-08-11T02:56:05;17.29;60.57
66119;DHT22;52912;48.564;9.302;2022-08-11T02:58:36;17.23;61.31
66119;DHT22;52912;48.564;9.302;2022-08-11T03:01:13;17.30;60.93
66119;DHT22;52912;48.564;9.302;2022-08-11T03:03:47;17.29;61.44
66119;DHT22;52912;48.564;9.302;2022-08-11T03:06:28;16.99;61.97
66119;DHT22;52912;48.564;9.302;2022-08-11T03:09:03;16.85;62.10
66119;DHT22;52912;48.564;9.302;2022-08-11T03:11:48;16.81;62.25
66119;DHT22;52912;48.564;9.302;2022-08-11T03:14:19;16.65;62.77
66119;DHT22;52912;48.564;9.302;2022-08-11T03:16:53;16.58;62.53
66119;DHT22;52912;48.564;9.302;2022-08-11T03:19:26;16.64;62.36
66119;DHT22;52912;48.564;9.302;2022-08-11T03:22:04;16.75;61.99
66119;DHT22;52912;48.564;9.302;2022-08-11T03:24:52;16.91;61.92
66119;DHT22;52912;48.564;9.302;2022-08-11T03:27:30;16.94;61.96
66119;DHT22;52912;48.564;9.302;2022-08-11T03:30:05;16.79;62.02
66119;DHT22;52912;48.564;9.302;2022-08-11T03:32:36;16.89;61.95
66119;DHT22;52912;48.564;9.302;2022-08-11T03:35:08;16.94;62.13
66119;DHT22;52912;48.564;9.302;2022-08-11T03:37:47;16.84;62.26
66119;DHT22;52912;48.564;9.302;2022-08-11T03:40:23;16.81;61.78
66119;DHT22;52912;48.564;9.302;2022-08-11T03:42:58;16.75;62.58
66119;DHT22;52912;48.564;9.302;2022-08-11T03:45:32;16.74;62.64
66119;DHT22;52912;48.564;9.302;2022-08-11T03:48:08;16.64;62.47
66119;DHT22;52912;48.564;9.302;2022-08-11T03:50:57;16.68;61.92
66119;DHT22;52912;48.564;9.302;2022-08-11T03:53:39;16.89;62.04
66119;DHT22;52912;48.564;9.302;2022-08-11T03:56:36;16.86;61.96
66119;DHT22;52912;48.564;9.302;2022-08-11T03:59:38;16.65;62.36
66119;DHT22;52912;48.564;9.302;2022-08-11T04:02:18;16.57;62.88
66119;DHT22;52912;48.564;9.302;2022-08-11T04:14:23;16.36;63.98
66119;DHT22;52912;48.564;9.302;2022-08-11T04:17:16;16.50;63.51
66119;DHT22;52912;48.564;9.302;2022-08-11T04:20:08;16.49;63.48
66119;DHT22;52912;48.564;9.302;2022-08-11T04:23:06;16.34;64.28
66119;DHT22;52912;48.564;9.302;2022-08-11T04:25:52;16.12;64.47
66119;DHT22;52912;48.564;9.302;2022-08-11T04:28:43;16.01;64.82
66119;DHT22;52912;48.564;9.302;2022-08-11T04:31:29;16.19;64.55
66119;DHT22;52912;48.564;9.302;2022-08-11T04:37:10;16.29;64.26
66119;DHT22;52912;48.564;9.302;2022-08-11T04:39:46;16.30;64.41
66119;DHT22;52912;48.564;9.302;2022-08-11T04:45:55;16.40;64.16
66119;DHT22;52912;48.564;9.302;2022-08-11T04:48:42;16.20;64.54
66119;DHT22;52912;48.564;9.302;2022-08-11T04:51:31;16.32;64.30
66119;DHT22;52912;48.564;9.302;2022-08-11T04:54:15;16.24;64.46
66119;DHT22;52912;48.564;9.302;2022-08-11T04:56:47;16.29;64.60
66119;DHT22;52912;48.564;9.302;2022-08-11T04:59:26;16.32;64.41
66119;DHT22;52912;48.564;9.302;2022-08-11T05:05:06;16.51;63.33
66119;DHT22;52912;48.564;9.302;2022-08-11T05:08:08;16.71;62.68
66119;DHT22;52912;48.564;9.302;2022-08-11T05:10:50;16.92;62.33
66119;DHT22;52912;48.564;9.302;2022-08-11T05:13:26;17.08;61.84
66119;DHT22;52912;48.564;9.302;2022-08-11T05:15:55;17.30;61.57
66119;DHT22;52912;48.564;9.302;2022-08-11T05:18:23;17.36;61.26
66119;DHT22;52912;48.564;9.302;2022-08-11T05:20:50;17.47;61.73
66119;DHT22;52912;48.564;9.302;2022-08-11T05:23:18;17.53;61.54
66119;DHT22;52912;48.564;9.302;2022-08-11T05:25:48;17.61;61.60
66119;DHT22;52912;48.564;9.302;2022-08-11T05:28:30;17.75;61.24
66119;DHT22;52912;48.564;9.302;2022-08-11T05:31:00;17.67;60.41
66119;DHT22;52912;48.564;9.302;2022-08-11T05:33:32;17.78;60.13
66119;DHT22;52912;48.564;9.302;2022-08-11T05:36:07;17.94;59.81
66119;DHT22;52912;48.564;9.302;2022-08-11T05:38:35;18.19;58.71
66119;DHT22;52912;48.564;9.302;2022-08-11T05:41:03;18.28;58.88
66119;DHT22;52912;48.564;9.302;2022-08-11T05:43:30;18.36;57.99
66119;DHT22;52912;48.564;9.302;2022-08-11T05:45:58;18.17;58.96
66119;DHT22;52912;48.564;9.302;2022-08-11T05:48:29;18.17;59.13
66119;DHT22;52912;48.564;9.302;2022-08-11T05:50:59;18.37;58.73
66119;DHT22;52912;48.564;9.302;2022-08-11T05:53:25;18.47;58.60
66119;DHT22;52912;48.564;9.302;2022-08-11T05:55:51;18.40;58.75
66119;DHT22;52912;48.564;9.302;2022-08-11T05:58:19;18.64;58.53
66119;DHT22;52912;48.564;9.302;2022-08-11T06:00:45;18.74;58.33
66119;DHT22;52912;48.564;9.302;2022-08-11T06:03:19;18.85;57.89
66119;DHT22;52912;48.564;9.302;2022-08-11T06:05:47;18.99;57.65
66119;DHT22;52912;48.564;9.302;2022-08-11T06:08:12;18.96;57.74
66119;DHT22;52912;48.564;9.302;2022-08-11T06:10:40;18.94;57.73
66119;DHT22;52912;48.564;9.302;2022-08-11T06:13:07;19.03;57.73
66119;DHT22;52912;48.564;9.302;2022-08-11T06:15:43;19.15;57.51
66119;DHT22;52912;48.564;9.302;2022-08-11T06:18:10;19.13;57.88
66119;DHT22;52912;48.564;9.302;2022-08-11T06:20:45;19.36;57.84
66119;DHT22;52912;48.564;9.302;2022-08-11T06:23:11;19.54;57.53
66119;DHT22;52912;48.564;9.302;2022-08-11T06:25:37;19.54;57.35
66119;DHT22;52912;48.564;9.302;2022-08-11T06:28:05;19.58;57.62
66119;DHT22;52912;48.564;9.302;2022-08-11T06:30:33;19.30;58.14
66119;DHT22;52912;48.564;9.302;2022-08-11T06:33:00;19.27;58.43
66119;DHT22;52912;48.564;9.302;2022-08-11T06:35:34;19.15;58.28
66119;DHT22;52912;48.564;9.302;2022-08-11T06:38:09;19.23;59.08
66119;DHT22;52912;48.564;9.302;2022-08-11T06:40:45;19.34;58.79
66119;DHT22;52912;48.564;9.302;2022-08-11T06:43:17;19.53;58.92
66119;DHT22;52912;48.564;9.302;2022-08-11T06:45:50;19.47;57.93
66119;DHT22;52912;48.564;9.302;2022-08-11T06:48:21;19.27;58.80
66119;DHT22;52912;48.564;9.302;2022-08-11T06:50:50;19.26;59.45
66119;DHT22;52912;48.564;9.302;2022-08-11T06:53:18;19.65;58.82
66119;DHT22;52912;48.564;9.302;2022-08-11T06:55:45;19.93;58.00
66119;DHT22;52912;48.564;9.302;2022-08-11T06:58:13;19.91;57.54
66119;DHT22;52912;48.564;9.302;2022-08-11T07:00:41;20.33;57.10
66119;DHT22;52912;48.564;9.302;2022-08-11T07:03:09;20.43;56.91
66119;DHT22;52912;48.564;9.302;2022-08-11T07:05:41;20.41;56.32
66119;DHT22;52912;48.564;9.302;2022-08-11T07:08:36;20.45;56.92
66119;DHT22;52912;48.564;9.302;2022-08-11T07:11:28;20.77;56.84
66119;DHT22;52912;48.564;9.302;2022-08-11T07:14:03;20.87;56.06
66119;DHT22;52912;48.564;9.302;2022-08-11T07:16:30;21.10;55.43
66119;DHT22;52912;48.564;9.302;2022-08-11T07:19:01;21.27;54.42
66119;DHT22;52912;48.564;9.302;2022-08-11T07:21:30;21.33;54.53
66119;DHT22;52912;48.564;9.302;2022-08-11T07:23:58;21.49;54.05
66119;DHT22;52912;48.564;9.302;2022-08-11T07:26:24;21.74;53.65
66119;DHT22;52912;48.564;9.302;2022-08-11T07:28:50;21.96;53.36
66119;DHT22;52912;48.564;9.302;2022-08-11T07:31:21;22.05;53.53
66119;DHT22;52912;48.564;9.302;2022-08-11T07:33:51;22.26;52.57
66119;DHT22;52912;48.564;9.302;2022-08-11T07:36:17;22.12;52.80
66119;DHT22;52912;48.564;9.302;2022-08-11T07:38:47;22.41;52.09
66119;DHT22;52912;48.564;9.302;2022-08-11T07:41:16;22.68;52.04
66119;DHT22;52912;48.564;9.302;2022-08-11T07:43:44;22.75;51.51
66119;DHT22;52912;48.564;9.302;2022-08-11T07:46:11;23.02;51.70
66119;DHT22;52912;48.564;9.302;2022-08-11T07:48:40;23.08;50.69
66119;DHT22;52912;48.564;9.302;2022-08-11T07:51:06;23.30;50.36
66119;DHT22;52912;48.564;9.302;2022-08-11T07:53:33;23.65;49.75
66119;DHT22;52912;48.564;9.302;2022-08-11T07:56:01;23.65;48.98
66119;DHT22;52912;48.564;9.302;2022-08-11T07:58:27;23.53;47.70
66119;DHT22;52912;48.564;9.302;2022-08-11T08:00:55;23.77;47.25
66119;DHT22;52912;48.564;9.302;2022-08-11T08:03:22;23.78;46.89
66119;DHT22;52912;48.564;9.302;2022-08-11T08:05:49;23.89;46.72
66119;DHT22;52912;48.564;9.302;2022-08-11T08:08:15;24.13;46.25
66119;DHT22;52912;48.564;9.302;2022-08-11T08:10:42;24.29;45.61
66119;DHT22;52912;48.564;9.302;2022-08-11T08:13:09;24.64;45.97
66119;DHT22;52912;48.564;9.302;2022-08-11T08:15:35;24.94;45.62
66119;DHT22;52912;48.564;9.302;2022-08-11T08:18:03;25.11;44.72
66119;DHT22;52912;48.564;9.302;2022-08-11T08:20:32;24.80;45.62
66119;DHT22;52912;48.564;9.302;2022-08-11T08:22:59;24.80;45.80
66119;DHT22;52912;48.564;9.302;2022-08-11T08:25:27;24.92;45.55
66119;DHT22;52912;48.564;9.302;2022-08-11T08:27:54;25.47;44.66
66119;DHT22;52912;48.564;9.302;2022-08-11T08:30:21;25.68;42.24
66119;DHT22;52912;48.564;9.302;2022-08-11T08:32:50;25.84;41.57
66119;DHT22;52912;48.564;9.302;2022-08-11T08:35:16;25.71;41.12
66119;DHT22;52912;48.564;9.302;2022-08-11T08:37:42;25.89;41.26
66119;DHT22;52912;48.564;9.302;2022-08-11T08:40:09;25.78;41.13
66119;DHT22;52912;48.564;9.302;2022-08-11T08:42:38;25.75;40.27
66119;DHT22;52912;48.564;9.302;2022-08-11T08:45:09;25.89;40.45
66119;DHT22;52912;48.564;9.302;2022-08-11T08:47:40;25.61;39.36
66119;DHT22;52912;48.564;9.302;2022-08-11T08:50:10;25.54;39.64
66119;DHT22;52912;48.564;9.302;2022-08-11T08:52:38;25.81;39.77
66119;DHT22;52912;48.564;9.302;2022-08-11T08:55:05;25.92;39.79
66119;DHT22;52912;48.564;9.302;2022-08-11T08:57:34;26.41;38.40
66119;DHT22;52912;48.564;9.302;2022-08-11T09:00:01;26.13;38.67
66119;DHT22;52912;48.564;9.302;2022-08-11T09:02:27;26.11;38.78
66119;DHT22;52912;48.564;9.302;2022-08-11T09:04:54;26.11;38.89
66119;DHT22;52912;48.564;9.302;2022-08-11T09:07:22;26.16;38.51
66119;DHT22;52912;48.564;9.302;2022-08-11T09:09:50;26.30;38.30
66119;DHT22;52912;48.564;9.302;2022-08-11T09:12:18;26.49;38.32
66119;DHT22;52912;48.564;9.302;2022-08-11T09:14:47;26.35;38.13
66119;DHT22;52912;48.564;9.302;2022-08-11T09:17:14;26.49;37.95
66119;DHT22;52912;48.564;9.302;2022-08-11T09:19:41;26.75;37.75
66119;DHT22;52912;48.564;9.302;2022-08-11T09:22:11;26.71;37.66
66119;DHT22;52912;48.564;9.302;2022-08-11T09:24:38;26.51;38.07
66119;DHT22;52912;48.564;9.302;2022-08-11T09:27:05;27.11;37.06
66119;DHT22;52912;48.564;9.302;2022-08-11T09:29:32;27.37;37.04
66119;DHT22;52912;48.564;9.302;2022-08-11T09:31:58;27.29;36.36
66119;DHT22;52912;48.564;9.302;2022-08-11T09:34:24;26.90;36.78
66119;DHT22;52912;48.564;9.302;2022-08-11T09:36:51;27.05;35.62
66119;DHT22;52912;48.564;9.302;2022-08-11T09:39:19;27.67;35.96
66119;DHT22;52912;48.564;9.302;2022-08-11T09:41:45;27.92;34.90
66119;DHT22;52912;48.564;9.302;2022-08-11T09:44:11;28.18;34.53
66119;DHT22;52912;48.564;9.302;2022-08-11T09:46:38;27.81;34.71
66119;DHT22;52912;48.564;9.302;2022-08-11T09:49:04;27.74;33.98
66119;DHT22;52912;48.564;9.302;2022-08-11T09:51:31;27.95;33.77
66119;DHT22;52912;48.564;9.302;2022-08-11T09:53:59;27.94;34.07
66119;DHT22;52912;48.564;9.302;2022-08-11T09:56:27;28.43;34.70
66119;DHT22;52912;48.564;9.302;2022-08-11T09:58:53;27.82;34.06
66119;DHT22;52912;48.564;9.302;2022-08-11T10:01:22;28.27;33.16
66119;DHT22;52912;48.564;9.302;2022-08-11T10:03:50;28.46;32.27
66119;DHT22;52912;48.564;9.302;2022-08-11T10:06:16;28.39;32.52
66119;DHT22;52912;48.564;9.302;2022-08-11T10:08:42;28.74;32.80
66119;DHT22;52912;48.564;9.302;2022-08-11T10:11:11;28.81;31.51
66119;DHT22;52912;48.564;9.302;2022-08-11T10:13:42;28.87;31.56
66119;DHT22;52912;48.564;9.302;2022-08-11T10:16:09;28.92;32.73
66119;DHT22;52912;48.564;9.302;2022-08-11T10:18:39;28.65;31.60
66119;DHT22;52912;48.564;9.302;2022-08-11T10:21:09;29.22;30.55
66119;DHT22;52912;48.564;9.302;2022-08-11T10:23:37;29.04;30.18
66119;DHT22;52912;48.564;9.302;2022-08-11T10:26:03;29.19;30.39
66119;DHT22;52912;48.564;9.302;2022-08-11T10:28:30;29.43;30.35
66119;DHT22;52912;48.564;9.302;2022-08-11T10:30:58;29.22;31.03
66119;DHT22;52912;48.564;9.302;2022-08-11T10:33:24;29.16;30.50
66119;DHT22;52912;48.564;9.302;2022-08-11T10:35:50;28.59;32.00
66119;DHT22;52912;48.564;9.302;2022-08-11T10:38:17;29.27;30.52
66119;DHT22;52912;48.564;9.302;2022-08-11T10:40:45;29.64;31.02
66119;DHT22;52912;48.564;9.302;2022-08-11T10:43:11;29.92;30.05
66119;DHT22;52912;48.564;9.302;2022-08-11T10:45:40;29.64;29.66
66119;DHT22;52912;48.564;9.302;2022-08-11T10:48:07;29.97;29.89
66119;DHT22;52912;48.564;9.302;2022-08-11T10:50:33;29.67;29.77
66119;DHT22;52912;48.564;9.302;2022-08-11T10:53:00;28.88;30.07
66119;DHT22;52912;48.564;9.302;2022-08-11T10:55:26;28.72;30.61
66119;DHT22;52912;48.564;9.302;2022-08-11T10:57:52;29.14;29.43
66119;DHT22;52912;48.564;9.302;2022-08-11T11:00:18;29.87;28.52
66119;DHT22;52912;48.564;9.302;2022-08-11T11:02:44;30.08;28.07
66119;DHT22;52912;48.564;9.302;2022-08-11T11:05:15;30.01;28.59
66119;DHT22;52912;48.564;9.302;2022-08-11T11:07:51;29.85;29.75
66119;DHT22;52912;48.564;9.302;2022-08-11T11:10:19;30.37;29.18
66119;DHT22;52912;48.564;9.302;2022-08-11T11:12:46;30.52;29.10
66119;DHT22;52912;48.564;9.302;2022-08-11T11:15:17;29.88;30.18
66119;DHT22;52912;48.564;9.302;2022-08-11T11:17:47;30.12;29.80
66119;DHT22;52912;48.564;9.302;2022-08-11T11:20:19;30.11;30.15
66119;DHT22;52912;48.564;9.302;2022-08-11T11:22:49;29.94;29.95
66119;DHT22;52912;48.564;9.302;2022-08-11T11:25:35;30.36;28.96
66119;DHT22;52912;48.564;9.302;2022-08-11T11:28:20;29.60;29.26
66119;DHT22;52912;48.564;9.302;2022-08-11T11:31:00;29.70;29.39
66119;DHT22;52912;48.564;9.302;2022-08-11T11:33:52;29.51;29.67
66119;DHT22;52912;48.564;9.302;2022-08-11T11:36:27;29.77;29.60
66119;DHT22;52912;48.564;9.302;2022-08-11T11:38:55;30.13;28.79
66119;DHT22;52912;48.564;9.302;2022-08-11T11:41:22;30.55;28.07
66119;DHT22;52912;48.564;9.302;2022-08-11T11:43:47;29.77;28.63
66119;DHT22;52912;48.564;9.302;2022-08-11T11:46:13;30.98;26.74
66119;DHT22;52912;48.564;9.302;2022-08-11T11:48:40;30.25;28.25
66119;DHT22;52912;48.564;9.302;2022-08-11T11:51:06;30.29;27.96
66119;DHT22;52912;48.564;9.302;2022-08-11T11:53:35;31.16;27.94
66119;DHT22;52912;48.564;9.302;2022-08-11T11:56:02;31.50;27.52
66119;DHT22;52912;48.564;9.302;2022-08-11T11:58:28;31.46;27.03
66119;DHT22;52912;48.564;9.302;2022-08-11T12:00:53;30.18;28.35
66119;DHT22;52912;48.564;9.302;2022-08-11T12:03:20;30.06;28.53
66119;DHT22;52912;48.564;9.302;2022-08-11T12:05:46;29.84;28.38
66119;DHT22;52912;48.564;9.302;2022-08-11T12:08:12;30.50;28.12
66119;DHT22;52912;48.564;9.302;2022-08-11T12:10:46;30.39;27.45
66119;DHT22;52912;48.564;9.302;2022-08-11T12:13:13;30.53;27.99
66119;DHT22;52912;48.564;9.302;2022-08-11T12:15:39;30.49;28.53
66119;DHT22;52912;48.564;9.302;2022-08-11T12:18:05;30.61;27.61
66119;DHT22;52912;48.564;9.302;2022-08-11T12:20:31;31.33;27.36
66119;DHT22;52912;48.564;9.302;2022-08-11T12:22:57;31.45;27.43
66119;DHT22;52912;48.564;9.302;2022-08-11T12:25:23;30.95;28.08
66119;DHT22;52912;48.564;9.302;2022-08-11T12:27:52;31.77;26.87
66119;DHT22;52912;48.564;9.302;2022-08-11T12:30:18;30.84;28.00
66119;DHT22;52912;48.564;9.302;2022-08-11T12:32:44;31.08;27.60
66119;DHT22;52912;48.564;9.302;2022-08-11T12:35:14;31.32;26.88
66119;DHT22;52912;48.564;9.302;2022-08-11T12:37:43;31.21;27.31
66119;DHT22;52912;48.564;9.302;2022-08-11T12:40:11;32.12;26.31
66119;DHT22;52912;48.564;9.302;2022-08-11T12:42:37;31.71;26.44
66119;DHT22;52912;48.564;9.302;2022-08-11T12:45:09;32.02;26.52
66119;DHT22;52912;48.564;9.302;2022-08-11T12:47:35;31.28;26.75
66119;DHT22;52912;48.564;9.302;2022-08-11T12:50:01;30.73;27.52
66119;DHT22;52912;48.564;9.302;2022-08-11T12:52:30;31.43;26.96
66119;DHT22;52912;48.564;9.302;2022-08-11T12:54:58;32.05;26.46
66119;DHT22;52912;48.564;9.302;2022-08-11T12:57:25;31.35;27.20
66119;DHT22;52912;48.564;9.302;2022-08-11T12:59:51;31.43;27.16
66119;DHT22;52912;48.564;9.302;2022-08-11T13:02:20;31.45;27.20
66119;DHT22;52912;48.564;9.302;2022-08-11T13:04:47;32.32;26.70
66119;DHT22;52912;48.564;9.302;2022-08-11T13:07:14;32.32;26.28
66119;DHT22;52912;48.564;9.302;2022-08-11T13:09:41;32.37;25.58
66119;DHT22;52912;48.564;9.302;2022-08-11T13:12:07;31.26;27.06
66119;DHT22;52912;48.564;9.302;2022-08-11T13:14:33;31.51;27.13
66119;DHT22;52912;48.564;9.302;2022-08-11T13:16:59;32.42;25.38
66119;DHT22;52912;48.564;9.302;2022-08-11T13:19:27;32.01;25.69
66119;DHT22;52912;48.564;9.302;2022-08-11T13:21:53;33.04;25.37
66119;DHT22;52912;48.564;9.302;2022-08-11T13:24:20;32.00;26.07
66119;DHT22;52912;48.564;9.302;2022-08-11T13:26:46;33.12;24.99
66119;DHT22;52912;48.564;9.302;2022-08-11T13:29:13;32.77;25.46
66119;DHT22;52912;48.564;9.302;2022-08-11T13:31:39;31.82;25.28
66119;DHT22;52912;48.564;9.302;2022-08-11T13:34:05;32.05;26.04
66119;DHT22;52912;48.564;9.302;2022-08-11T13:36:33;31.82;26.40
66119;DHT22;52912;48.564;9.302;2022-08-11T13:38:59;32.26;26.16
66119;DHT22;52912;48.564;9.302;2022-08-11T13:41:27;32.33;26.61
66119;DHT22;52912;48.564;9.302;2022-08-11T13:43:54;32.39;26.30
66119;DHT22;52912;48.564;9.302;2022-08-11T13:46:22;31.57;26.85
66119;DHT22;52912;48.564;9.302;2022-08-11T13:48:48;32.05;26.37
66119;DHT22;52912;48.564;9.302;2022-08-11T13:51:15;32.35;26.34
66119;DHT22;52912;48.564;9.302;2022-08-11T13:53:42;32.43;26.35
66119;DHT22;52912;48.564;9.302;2022-08-11T13:56:08;33.14;25.36
66119;DHT22;52912;48.564;9.302;2022-08-11T13:58:34;33.03;25.60
66119;DHT22;52912;48.564;9.302;2022-08-11T14:01:01;31.69;26.22
66119;DHT22;52912;48.564;9.302;2022-08-11T14:03:27;31.54;26.93
66119;DHT22;52912;48.564;9.302;2022-08-11T14:05:56;31.46;27.25
66119;DHT22;52912;48.564;9.302;2022-08-11T14:08:25;32.14;27.03
66119;DHT22;52912;48.564;9.302;2022-08-11T14:10:54;32.35;26.42
66119;DHT22;52912;48.564;9.302;2022-08-11T14:13:24;32.43;26.45
66119;DHT22;52912;48.564;9.302;2022-08-11T14:15:51;31.39;27.36
66119;DHT22;52912;48.564;9.302;2022-08-11T14:18:18;31.51;26.86
66119;DHT22;52912;48.564;9.302;2022-08-11T14:20:48;31.69;27.09
66119;DHT22;52912;48.564;9.302;2022-08-11T14:23:16;31.97;26.60
66119;DHT22;52912;48.564;9.302;2022-08-11T14:25:42;32.74;25.13
66119;DHT22;52912;48.564;9.302;2022-08-11T14:28:09;33.29;25.76
66119;DHT22;52912;48.564;9.302;2022-08-11T14:30:35;32.15;25.70
66119;DHT22;52912;48.564;9.302;2022-08-11T14:33:01;33.29;25.79
66119;DHT22;52912;48.564;9.302;2022-08-11T14:35:27;32.40;26.17
66119;DHT22;52912;48.564;9.302;2022-08-11T14:37:54;31.77;26.76
66119;DHT22;52912;48.564;9.302;2022-08-11T14:40:22;31.94;26.93
66119;DHT22;52912;48.564;9.302;2022-08-11T14:42:47;32.18;26.92
66119;DHT22;52912;48.564;9.302;2022-08-11T14:45:15;32.51;26.63
66119;DHT22;52912;48.564;9.302;2022-08-11T14:47:42;31.28;27.05
66119;DHT22;52912;48.564;9.302;2022-08-11T14:50:11;31.35;27.16
66119;DHT22;52912;48.564;9.302;2022-08-11T14:52:41;31.08;27.45
66119;DHT22;52912;48.564;9.302;2022-08-11T14:55:08;31.51;27.02
66119;DHT22;52912;48.564;9.302;2022-08-11T14:57:37;31.43;26.73
66119;DHT22;52912;48.564;9.302;2022-08-11T15:00:06;31.26;27.05
66119;DHT22;52912;48.564;9.302;2022-08-11T15:02:36;31.21;27.31
66119;DHT22;52912;48.564;9.302;2022-08-11T15:05:03;31.22;27.25
66119;DHT22;52912;48.564;9.302;2022-08-11T15:07:30;31.91;26.54
66119;DHT22;52912;48.564;9.302;2022-08-11T15:09:56;31.39;27.21
66119;DHT22;52912;48.564;9.302;2022-08-11T15:12:23;31.35;27.40
66119;DHT22;52912;48.564;9.302;2022-08-11T15:14:49;31.09;27.40
66119;DHT22;52912;48.564;9.302;2022-08-11T15:17:15;31.05;27.52
66119;DHT22;52912;48.564;9.302;2022-08-11T15:19:43;30.98;26.93
66119;DHT22;52912;48.564;9.302;2022-08-11T15:22:09;31.49;26.84
66119;DHT22;52912;48.564;9.302;2022-08-11T15:24:35;31.78;26.57
66119;DHT22;52912;48.564;9.302;2022-08-11T15:27:03;32.02;26.12
66119;DHT22;52912;48.564;9.302;2022-08-11T15:29:32;31.91;26.30
66119;DHT22;52912;48.564;9.302;2022-08-11T15:31:59;31.57;26.46
66119;DHT22;52912;48.564;9.302;2022-08-11T15:34:27;31.92;26.42
66119;DHT22;52912;48.564;9.302;2022-08-11T15:36:58;31.69;26.17
66119;DHT22;52912;48.564;9.302;2022-08-11T15:39:27;31.54;26.41
66119;DHT22;52912;48.564;9.302;2022-08-11T15:41:59;31.02;27.15
66119;DHT22;52912;48.564;9.302;2022-08-11T15:44:29;31.03;26.84
66119;DHT22;52912;48.564;9.302;2022-08-11T15:46:57;31.25;26.36
66119;DHT22;52912;48.564;9.302;2022-08-11T15:49:29;30.99;26.89
66119;DHT22;52912;48.564;9.302;2022-08-11T15:52:01;32.05;26.46
66119;DHT22;52912;48.564;9.302;2022-08-11T15:54:29;32.11;25.98
66119;DHT22;52912;48.564;9.302;2022-08-11T15:56:57;31.26;26.49
66119;DHT22;52912;48.564;9.302;2022-08-11T15:59:24;31.36;26.63
66119;DHT22;52912;48.564;9.302;2022-08-11T16:01:50;32.00;25.97
66119;DHT22;52912;48.564;9.302;2022-08-11T16:04:20;31.50;26.02
66119;DHT22;52912;48.564;9.302;2022-08-11T16:06:56;31.80;26.07
66119;DHT22;52912;48.564;9.302;2022-08-11T16:09:29;31.57;26.04
66119;DHT22;52912;48.564;9.302;2022-08-11T16:11:59;32.09;25.23
66119;DHT22;52912;48.564;9.302;2022-08-11T16:14:26;32.49;25.08
66119;DHT22;52912;48.564;9.302;2022-08-11T16:16:53;31.69;26.03
66119;DHT22;52912;48.564;9.302;2022-08-11T16:19:19;31.37;26.48
66119;DHT22;52912;48.564;9.302;2022-08-11T16:21:46;30.90;27.05
66119;DHT22;52912;48.564;9.302;2022-08-11T16:24:14;31.53;26.13
66119;DHT22;52912;48.564;9.302;2022-08-11T16:26:42;31.57;26.19
66119;DHT22;52912;48.564;9.302;2022-08-11T16:29:09;31.25;26.41
66119;DHT22;52912;48.564;9.302;2022-08-11T16:31:37;31.28;26.24
66119;DHT22;52912;48.564;9.302;2022-08-11T16:34:04;31.15;26.59